sensor_id;sensor_type;location;lat;lon;timestamp;P1;durP1;ratioP1;P2;durP2;ratioP2
50429;SDS011;36359;41.556;-8.418;2022-09-02T00:00:49;4.10;;;2.92;;
50429;SDS011;36359;41.556;-8.418;2022-09-02T00:03:18;4.25;;;2.47;;
50429;SDS011;36359;41.556;-8.418;2022-09-02T00:05:44;3.22;;;2.28;;
50429;SDS011;36359;41.556;-8.418;2022-09-02T00:08:18;4.43;;;1.80;;
50429;SDS011;36359;41.556;-8.418;2022-09-02T00:10:44;3.42;;;2.20;;
50429;SDS011;36359;41.556;-8.418;2022-09-02T00:13:11;4.03;;;2.67;;
50429;SDS011;36359;41.556;-8.418;2022-09-02T00:15:39;5.07;;;3.00;;
50429;SDS011;36359;41.556;-8.418;2022-09-02T00:18:06;3.15;;;2.75;;
50429;SDS011;36359;41.556;-8.418;2022-09-02T00:20:33;3.63;;;2.78;;
50429;SDS011;36359;41.556;-8.418;2022-09-02T00:22:59;2.42;;;1.65;;
50429;SDS011;36359;41.556;-8.418;2022-09-02T00:25:24;2.53;;;1.25;;
50429;SDS011;36359;41.556;-8.418;2022-09-02T00:27:50;4.47;;;2.65;;
50429;SDS011;36359;41.556;-8.418;2022-09-02T00:30:16;3.97;;;2.90;;
50429;SDS011;36359;41.556;-8.418;2022-09-02T00:32:42;3.75;;;2.78;;
50429;SDS011;36359;41.556;-8.418;2022-09-02T00:35:08;4.05;;;2.78;;
50429;SDS011;36359;41.556;-8.418;2022-09-02T00:37:35;2.95;;;1.40;;
50429;SDS011;36359;41.556;-8.418;2022-09-02T00:40:02;3.25;;;2.38;;
50429;SDS011;36359;41.556;-8.418;2022-09-02T00:42:29;3.30;;;2.45;;
50429;SDS011;36359;41.556;-8.418;2022-09-02T00:44:55;2.63;;;1.95;;
50429;SDS011;36359;41.556;-8.418;2022-09-02T00:47:21;2.63;;;1.15;;
50429;SDS011;36359;41.556;-8.418;2022-09-02T00:49:49;3.35;;;2.00;;
50429;SDS011;36359;41.556;-8.418;2022-09-02T00:52:20;4.90;;;3.10;;
50429;SDS011;36359;41.556;-8.418;2022-09-02T00:54:52;2.65;;;2.28;;
50429;SDS011;36359;41.556;-8.418;2022-09-02T00:57:23;2.28;;;1.30;;
50429;SDS011;36359;41.556;-8.418;2022-09-02T01:02:31;2.80;;;1.80;;
50429;SDS011;36359;41.556;-8.418;2022-09-02T01:04:57;4.80;;;3.20;;
50429;SDS011;36359;41.556;-8.418;2022-09-02T01:07:31;3.22;;;1.20;;
50429;SDS011;36359;41.556;-8.418;2022-09-02T01:09:59;1.77;;;1.23;;
50429;SDS011;36359;41.556;-8.418;2022-09-02T01:12:27;3.03;;;2.05;;
50429;SDS011;36359;41.556;-8.418;2022-09-02T01:14:55;5.72;;;2.80;;
50429;SDS011;36359;41.556;-8.418;2022-09-02T01:17:23;4.55;;;2.35;;
50429;SDS011;36359;41.556;-8.418;2022-09-02T01:19:57;2.53;;;1.42;;
50429;SDS011;36359;41.556;-8.418;2022-09-02T01:22:29;2.70;;;1.40;;
50429;SDS011;36359;41.556;-8.418;2022-09-02T01:24:59;1.63;;;0.93;;
50429;SDS011;36359;41.556;-8.418;2022-09-02T01:27:30;3.88;;;2.47;;
50429;SDS011;36359;41.556;-8.418;2022-09-02T01:29:57;2.50;;;1.48;;
50429;SDS011;36359;41.556;-8.418;2022-09-02T01:32:24;3.42;;;1.40;;
50429;SDS011;36359;41.556;-8.418;2022-09-02T01:34:52;3.25;;;1.52;;
50429;SDS011;36359;41.556;-8.418;2022-09-02T01:37:19;2.67;;;1.75;;
50429;SDS011;36359;41.556;-8.418;2022-09-02T01:39:45;2.33;;;1.15;;
50429;SDS011;36359;41.556;-8.418;2022-09-02T01:42:11;2.20;;;1.40;;
50429;SDS011;36359;41.556;-8.418;2022-09-02T01:44:40;2.05;;;1.33;;
50429;SDS011;36359;41.556;-8.418;2022-09-02T01:47:14;2.55;;;1.42;;
50429;SDS011;36359;41.556;-8.418;2022-09-02T01:49:43;2.40;;;1.55;;
50429;SDS011;36359;41.556;-8.418;2022-09-02T01:52:11;4.13;;;1.50;;
50429;SDS011;36359;41.556;-8.418;2022-09-02T01:54:37;1.73;;;1.40;;
50429;SDS011;36359;41.556;-8.418;2022-09-02T01:57:03;8.30;;;5.03;;
50429;SDS011;36359;41.556;-8.418;2022-09-02T01:59:29;11.07;;;6.53;;
50429;SDS011;36359;41.556;-8.418;2022-09-02T02:01:57;5.40;;;4.15;;
50429;SDS011;36359;41.556;-8.418;2022-09-02T02:04:24;13.73;;;10.20;;
50429;SDS011;36359;41.556;-8.418;2022-09-02T02:06:53;11.98;;;9.18;;
50429;SDS011;36359;41.556;-8.418;2022-09-02T02:09:19;5.80;;;4.97;;
50429;SDS011;36359;41.556;-8.418;2022-09-02T02:11:46;4.45;;;3.08;;
50429;SDS011;36359;41.556;-8.418;2022-09-02T02:14:13;3.25;;;2.25;;
50429;SDS011;36359;41.556;-8.418;2022-09-02T02:16:45;6.93;;;6.22;;
50429;SDS011;36359;41.556;-8.418;2022-09-02T02:19:12;8.23;;;7.30;;
50429;SDS011;36359;41.556;-8.418;2022-09-02T02:21:38;4.57;;;3.15;;
50429;SDS011;36359;41.556;-8.418;2022-09-02T02:24:04;2.42;;;1.92;;
50429;SDS011;36359;41.556;-8.418;2022-09-02T02:26:32;2.80;;;2.08;;
50429;SDS011;36359;41.556;-8.418;2022-09-02T02:29:00;2.83;;;2.13;;
50429;SDS011;36359;41.556;-8.418;2022-09-02T02:31:27;4.93;;;3.72;;
50429;SDS011;36359;41.556;-8.418;2022-09-02T02:33:53;3.50;;;2.85;;
50429;SDS011;36359;41.556;-8.418;2022-09-02T02:36:20;3.50;;;2.53;;
50429;SDS011;36359;41.556;-8.418;2022-09-02T02:38:47;4.40;;;3.10;;
50429;SDS011;36359;41.556;-8.418;2022-09-02T02:41:13;3.90;;;2.55;;
50429;SDS011;36359;41.556;-8.418;2022-09-02T02:43:40;4.38;;;3.60;;
50429;SDS011;36359;41.556;-8.418;2022-09-02T02:46:07;16.20;;;10.52;;
50429;SDS011;36359;41.556;-8.418;2022-09-02T02:48:35;39.72;;;25.90;;
50429;SDS011;36359;41.556;-8.418;2022-09-02T02:51:02;9.07;;;5.50;;
50429;SDS011;36359;41.556;-8.418;2022-09-02T02:53:28;4.78;;;3.00;;
50429;SDS011;36359;41.556;-8.418;2022-09-02T02:55:56;4.45;;;3.33;;
50429;SDS011;36359;41.556;-8.418;2022-09-02T02:58:26;3.65;;;2.60;;
50429;SDS011;36359;41.556;-8.418;2022-09-02T03:00:54;5.30;;;2.78;;
50429;SDS011;36359;41.556;-8.418;2022-09-02T03:03:20;3.75;;;3.05;;
50429;SDS011;36359;41.556;-8.418;2022-09-02T03:05:50;5.22;;;3.42;;
50429;SDS011;36359;41.556;-8.418;2022-09-02T03:08:17;3.53;;;2.53;;
50429;SDS011;36359;41.556;-8.418;2022-09-02T03:10:49;4.28;;;2.40;;
50429;SDS011;36359;41.556;-8.418;2022-09-02T03:13:20;3.33;;;2.45;;
50429;SDS011;36359;41.556;-8.418;2022-09-02T03:15:48;3.30;;;2.58;;
50429;SDS011;36359;41.556;-8.418;2022-09-02T03:18:14;5.22;;;3.30;;
50429;SDS011;36359;41.556;-8.418;2022-09-02T03:20:40;10.30;;;9.23;;
50429;SDS011;36359;41.556;-8.418;2022-09-02T03:23:08;8.10;;;7.30;;
50429;SDS011;36359;41.556;-8.418;2022-09-02T03:25:35;7.10;;;6.40;;
50429;SDS011;36359;41.556;-8.418;2022-09-02T03:28:03;6.85;;;5.05;;
50429;SDS011;36359;41.556;-8.418;2022-09-02T03:30:30;5.18;;;3.65;;
50429;SDS011;36359;41.556;-8.418;2022-09-02T03:32:58;4.82;;;3.53;;
50429;SDS011;36359;41.556;-8.418;2022-09-02T03:35:26;6.78;;;4.88;;
50429;SDS011;36359;41.556;-8.418;2022-09-02T03:37:53;4.93;;;4.00;;
50429;SDS011;36359;41.556;-8.418;2022-09-02T03:40:23;5.43;;;3.50;;
50429;SDS011;36359;41.556;-8.418;2022-09-02T03:42:52;4.40;;;3.60;;
50429;SDS011;36359;41.556;-8.418;2022-09-02T03:45:20;8.43;;;3.70;;
50429;SDS011;36359;41.556;-8.418;2022-09-02T03:47:48;4.28;;;3.60;;
50429;SDS011;36359;41.556;-8.418;2022-09-02T03:50:22;4.32;;;3.70;;
50429;SDS011;36359;41.556;-8.418;2022-09-02T03:52:51;4.85;;;4.07;;
50429;SDS011;36359;41.556;-8.418;2022-09-02T03:55:19;5.35;;;4.63;;
50429;SDS011;36359;41.556;-8.418;2022-09-02T03:57:45;5.20;;;4.15;;
50429;SDS011;36359;41.556;-8.418;2022-09-02T04:00:13;4.45;;;3.35;;
50429;SDS011;36359;41.556;-8.418;2022-09-02T04:02:40;4.90;;;4.35;;
50429;SDS011;36359;41.556;-8.418;2022-09-02T04:05:08;5.07;;;4.35;;
50429;SDS011;36359;41.556;-8.418;2022-09-02T04:07:38;5.13;;;3.42;;
50429;SDS011;36359;41.556;-8.418;2022-09-02T04:10:04;4.45;;;3.72;;
50429;SDS011;36359;41.556;-8.418;2022-09-02T04:12:37;3.65;;;2.75;;
50429;SDS011;36359;41.556;-8.418;2022-09-02T04:15:05;3.35;;;3.00;;
50429;SDS011;36359;41.556;-8.418;2022-09-02T04:17:36;5.93;;;3.83;;
50429;SDS011;36359;41.556;-8.418;2022-09-02T04:20:06;4.03;;;2.85;;
50429;SDS011;36359;41.556;-8.418;2022-09-02T04:22:34;4.35;;;2.90;;
50429;SDS011;36359;41.556;-8.418;2022-09-02T04:25:00;3.53;;;2.50;;
50429;SDS011;36359;41.556;-8.418;2022-09-02T04:27:26;4.38;;;2.35;;
50429;SDS011;36359;41.556;-8.418;2022-09-02T04:29:53;3.25;;;2.33;;
50429;SDS011;36359;41.556;-8.418;2022-09-02T04:32:21;3.95;;;2.33;;
50429;SDS011;36359;41.556;-8.418;2022-09-02T04:34:48;5.57;;;3.92;;
50429;SDS011;36359;41.556;-8.418;2022-09-02T04:37:15;5.68;;;4.20;;
50429;SDS011;36359;41.556;-8.418;2022-09-02T04:39:41;6.30;;;4.88;;
50429;SDS011;36359;41.556;-8.418;2022-09-02T04:42:08;6.00;;;4.05;;
50429;SDS011;36359;41.556;-8.418;2022-09-02T04:44:34;6.50;;;4.45;;
50429;SDS011;36359;41.556;-8.418;2022-09-02T04:47:01;8.40;;;5.82;;
50429;SDS011;36359;41.556;-8.418;2022-09-02T04:49:27;7.95;;;5.13;;
50429;SDS011;36359;41.556;-8.418;2022-09-02T04:51:57;6.23;;;4.70;;
50429;SDS011;36359;41.556;-8.418;2022-09-02T04:54:25;5.57;;;4.78;;
50429;SDS011;36359;41.556;-8.418;2022-09-02T04:56:53;4.90;;;4.22;;
50429;SDS011;36359;41.556;-8.418;2022-09-02T04:59:19;7.55;;;5.38;;
50429;SDS011;36359;41.556;-8.418;2022-09-02T05:04:30;12.27;;;11.00;;
50429;SDS011;36359;41.556;-8.418;2022-09-02T05:06:59;7.43;;;5.80;;
50429;SDS011;36359;41.556;-8.418;2022-09-02T05:09:28;13.65;;;12.25;;
50429;SDS011;36359;41.556;-8.418;2022-09-02T05:11:59;6.38;;;5.38;;
50429;SDS011;36359;41.556;-8.418;2022-09-02T05:14:37;6.28;;;5.10;;
50429;SDS011;36359;41.556;-8.418;2022-09-02T05:17:05;5.45;;;4.68;;
50429;SDS011;36359;41.556;-8.418;2022-09-02T05:19:31;7.32;;;4.93;;
50429;SDS011;36359;41.556;-8.418;2022-09-02T05:21:59;5.18;;;4.68;;
50429;SDS011;36359;41.556;-8.418;2022-09-02T05:24:36;6.80;;;4.57;;
50429;SDS011;36359;41.556;-8.418;2022-09-02T05:27:06;6.97;;;5.80;;
50429;SDS011;36359;41.556;-8.418;2022-09-02T05:29:34;8.38;;;5.88;;
50429;SDS011;36359;41.556;-8.418;2022-09-02T05:32:00;5.82;;;5.32;;
50429;SDS011;36359;41.556;-8.418;2022-09-02T05:34:26;6.47;;;5.78;;
50429;SDS011;36359;41.556;-8.418;2022-09-02T05:36:55;6.95;;;5.10;;
50429;SDS011;36359;41.556;-8.418;2022-09-02T05:39:22;5.82;;;4.93;;
50429;SDS011;36359;41.556;-8.418;2022-09-02T05:41:48;6.32;;;5.32;;
50429;SDS011;36359;41.556;-8.418;2022-09-02T05:44:15;4.95;;;4.38;;
50429;SDS011;36359;41.556;-8.418;2022-09-02T05:46:41;5.20;;;4.70;;
50429;SDS011;36359;41.556;-8.418;2022-09-02T05:49:07;7.13;;;4.38;;
50429;SDS011;36359;41.556;-8.418;2022-09-02T05:51:52;4.10;;;3.70;;
50429;SDS011;36359;41.556;-8.418;2022-09-02T05:54:35;5.45;;;4.03;;
50429;SDS011;36359;41.556;-8.418;2022-09-02T05:57:09;4.78;;;4.13;;
50429;SDS011;36359;41.556;-8.418;2022-09-02T05:59:41;5.00;;;4.32;;
50429;SDS011;36359;41.556;-8.418;2022-09-02T06:04:53;6.10;;;5.13;;
50429;SDS011;36359;41.556;-8.418;2022-09-02T06:07:22;5.60;;;5.00;;
50429;SDS011;36359;41.556;-8.418;2022-09-02T06:09:51;7.70;;;5.15;;
50429;SDS011;36359;41.556;-8.418;2022-09-02T06:12:20;6.40;;;5.80;;
50429;SDS011;36359;41.556;-8.418;2022-09-02T06:14:48;7.20;;;5.45;;
50429;SDS011;36359;41.556;-8.418;2022-09-02T06:17:15;18.92;;;6.35;;
50429;SDS011;36359;41.556;-8.418;2022-09-02T06:19:48;13.07;;;5.80;;
50429;SDS011;36359;41.556;-8.418;2022-09-02T06:22:14;7.38;;;4.47;;
50429;SDS011;36359;41.556;-8.418;2022-09-02T06:24:41;5.13;;;3.47;;
50429;SDS011;36359;41.556;-8.418;2022-09-02T06:27:12;4.65;;;3.80;;
50429;SDS011;36359;41.556;-8.418;2022-09-02T06:29:42;5.25;;;4.40;;
50429;SDS011;36359;41.556;-8.418;2022-09-02T06:32:10;9.25;;;5.43;;
50429;SDS011;36359;41.556;-8.418;2022-09-02T06:34:36;14.27;;;5.97;;
50429;SDS011;36359;41.556;-8.418;2022-09-02T06:37:03;7.03;;;5.13;;
50429;SDS011;36359;41.556;-8.418;2022-09-02T06:39:31;10.40;;;6.13;;
50429;SDS011;36359;41.556;-8.418;2022-09-02T06:41:57;7.38;;;5.22;;
50429;SDS011;36359;41.556;-8.418;2022-09-02T06:44:26;9.32;;;6.40;;
50429;SDS011;36359;41.556;-8.418;2022-09-02T06:46:55;7.78;;;6.97;;
50429;SDS011;36359;41.556;-8.418;2022-09-02T06:49:23;10.93;;;6.82;;
50429;SDS011;36359;41.556;-8.418;2022-09-02T06:51:52;8.70;;;6.47;;
50429;SDS011;36359;41.556;-8.418;2022-09-02T06:54:26;12.45;;;7.82;;
50429;SDS011;36359;41.556;-8.418;2022-09-02T06:57:02;10.50;;;8.07;;
50429;SDS011;36359;41.556;-8.418;2022-09-02T06:59:28;10.18;;;8.77;;
50429;SDS011;36359;41.556;-8.418;2022-09-02T07:01:56;8.93;;;8.02;;
50429;SDS011;36359;41.556;-8.418;2022-09-02T07:04:23;8.82;;;6.38;;
50429;SDS011;36359;41.556;-8.418;2022-09-02T07:07:11;10.90;;;8.05;;
50429;SDS011;36359;41.556;-8.418;2022-09-02T07:10:00;11.23;;;7.80;;
50429;SDS011;36359;41.556;-8.418;2022-09-02T07:12:26;5.68;;;4.55;;
50429;SDS011;36359;41.556;-8.418;2022-09-02T07:15:01;11.40;;;8.93;;
50429;SDS011;36359;41.556;-8.418;2022-09-02T07:17:32;13.82;;;9.88;;
50429;SDS011;36359;41.556;-8.418;2022-09-02T07:20:04;10.27;;;8.93;;
50429;SDS011;36359;41.556;-8.418;2022-09-02T07:22:37;8.88;;;6.40;;
50429;SDS011;36359;41.556;-8.418;2022-09-02T07:25:05;12.10;;;9.45;;
50429;SDS011;36359;41.556;-8.418;2022-09-02T07:27:33;6.85;;;4.97;;
50429;SDS011;36359;41.556;-8.418;2022-09-02T07:29:59;11.38;;;10.10;;
50429;SDS011;36359;41.556;-8.418;2022-09-02T07:32:25;19.63;;;10.25;;
50429;SDS011;36359;41.556;-8.418;2022-09-02T07:34:51;13.48;;;10.27;;
50429;SDS011;36359;41.556;-8.418;2022-09-02T07:37:17;10.70;;;9.27;;
50429;SDS011;36359;41.556;-8.418;2022-09-02T07:39:43;8.20;;;6.22;;
50429;SDS011;36359;41.556;-8.418;2022-09-02T07:42:12;12.68;;;9.70;;
50429;SDS011;36359;41.556;-8.418;2022-09-02T07:44:39;6.43;;;4.78;;
50429;SDS011;36359;41.556;-8.418;2022-09-02T07:47:06;9.45;;;7.22;;
50429;SDS011;36359;41.556;-8.418;2022-09-02T07:49:34;9.95;;;8.25;;
50429;SDS011;36359;41.556;-8.418;2022-09-02T07:52:00;5.78;;;5.15;;
50429;SDS011;36359;41.556;-8.418;2022-09-02T07:54:26;7.57;;;5.63;;
50429;SDS011;36359;41.556;-8.418;2022-09-02T07:56:54;11.50;;;8.60;;
50429;SDS011;36359;41.556;-8.418;2022-09-02T07:59:21;4.55;;;3.58;;
50429;SDS011;36359;41.556;-8.418;2022-09-02T08:01:51;15.40;;;10.35;;
50429;SDS011;36359;41.556;-8.418;2022-09-02T08:04:19;12.40;;;9.82;;
50429;SDS011;36359;41.556;-8.418;2022-09-02T08:06:50;7.68;;;6.88;;
50429;SDS011;36359;41.556;-8.418;2022-09-02T08:09:18;7.68;;;5.80;;
50429;SDS011;36359;41.556;-8.418;2022-09-02T08:11:45;12.48;;;9.63;;
50429;SDS011;36359;41.556;-8.418;2022-09-02T08:14:16;14.05;;;10.75;;
50429;SDS011;36359;41.556;-8.418;2022-09-02T08:16:48;13.75;;;10.32;;
50429;SDS011;36359;41.556;-8.418;2022-09-02T08:19:14;12.63;;;10.55;;
50429;SDS011;36359;41.556;-8.418;2022-09-02T08:21:40;15.75;;;10.88;;
50429;SDS011;36359;41.556;-8.418;2022-09-02T08:24:06;13.32;;;10.75;;
50429;SDS011;36359;41.556;-8.418;2022-09-02T08:26:32;15.63;;;11.55;;
50429;SDS011;36359;41.556;-8.418;2022-09-02T08:29:02;11.32;;;8.73;;
50429;SDS011;36359;41.556;-8.418;2022-09-02T08:31:29;9.05;;;7.07;;
50429;SDS011;36359;41.556;-8.418;2022-09-02T08:33:56;9.45;;;7.45;;
50429;SDS011;36359;41.556;-8.418;2022-09-02T08:36:22;13.77;;;9.35;;
50429;SDS011;36359;41.556;-8.418;2022-09-02T08:38:48;14.60;;;11.25;;
50429;SDS011;36359;41.556;-8.418;2022-09-02T08:41:16;8.43;;;6.85;;
50429;SDS011;36359;41.556;-8.418;2022-09-02T08:43:50;12.00;;;9.27;;
50429;SDS011;36359;41.556;-8.418;2022-09-02T08:46:18;8.93;;;6.72;;
50429;SDS011;36359;41.556;-8.418;2022-09-02T08:48:51;10.93;;;7.88;;
50429;SDS011;36359;41.556;-8.418;2022-09-02T08:51:57;3.97;;;3.55;;
50429;SDS011;36359;41.556;-8.418;2022-09-02T08:57:06;4.55;;;3.55;;
50429;SDS011;36359;41.556;-8.418;2022-09-02T08:59:34;5.10;;;3.75;;
50429;SDS011;36359;41.556;-8.418;2022-09-02T09:02:23;6.50;;;5.57;;
50429;SDS011;36359;41.556;-8.418;2022-09-02T09:16:17;3.35;;;2.97;;
50429;SDS011;36359;41.556;-8.418;2022-09-02T09:21:39;3.45;;;2.80;;
50429;SDS011;36359;41.556;-8.418;2022-09-02T09:24:16;3.83;;;2.97;;
50429;SDS011;36359;41.556;-8.418;2022-09-02T09:26:44;3.05;;;2.67;;
50429;SDS011;36359;41.556;-8.418;2022-09-02T09:29:11;3.30;;;2.88;;
50429;SDS011;36359;41.556;-8.418;2022-09-02T09:31:37;5.70;;;3.05;;
50429;SDS011;36359;41.556;-8.418;2022-09-02T09:34:08;4.18;;;2.95;;
50429;SDS011;36359;41.556;-8.418;2022-09-02T09:41:55;3.88;;;2.53;;
50429;SDS011;36359;41.556;-8.418;2022-09-02T09:49:50;4.18;;;2.38;;
50429;SDS011;36359;41.556;-8.418;2022-09-02T09:52:25;2.65;;;2.42;;
50429;SDS011;36359;41.556;-8.418;2022-09-02T09:57:34;3.38;;;2.55;;
50429;SDS011;36359;41.556;-8.418;2022-09-02T10:00:00;2.78;;;2.42;;
50429;SDS011;36359;41.556;-8.418;2022-09-02T10:02:44;3.15;;;2.30;;
50429;SDS011;36359;41.556;-8.418;2022-09-02T10:05:16;6.40;;;2.38;;
50429;SDS011;36359;41.556;-8.418;2022-09-02T10:07:52;2.38;;;2.08;;
50429;SDS011;36359;41.556;-8.418;2022-09-02T10:10:20;3.85;;;2.42;;
50429;SDS011;36359;41.556;-8.418;2022-09-02T10:12:48;5.70;;;1.90;;
50429;SDS011;36359;41.556;-8.418;2022-09-02T10:15:25;2.50;;;2.20;;
50429;SDS011;36359;41.556;-8.418;2022-09-02T10:18:19;3.10;;;1.92;;
50429;SDS011;36359;41.556;-8.418;2022-09-02T10:34:55;2.22;;;1.52;;
50429;SDS011;36359;41.556;-8.418;2022-09-02T10:37:58;1.92;;;1.00;;
50429;SDS011;36359;41.556;-8.418;2022-09-02T10:40:44;2.70;;;1.33;;
50429;SDS011;36359;41.556;-8.418;2022-09-02T10:50:48;3.28;;;1.45;;
50429;SDS011;36359;41.556;-8.418;2022-09-02T10:56:01;3.65;;;1.80;;
50429;SDS011;36359;41.556;-8.418;2022-09-02T10:58:43;4.20;;;2.10;;
50429;SDS011;36359;41.556;-8.418;2022-09-02T11:01:24;4.05;;;2.03;;
50429;SDS011;36359;41.556;-8.418;2022-09-02T11:06:43;3.50;;;1.60;;
50429;SDS011;36359;41.556;-8.418;2022-09-02T11:09:29;7.82;;;2.10;;
50429;SDS011;36359;41.556;-8.418;2022-09-02T11:17:44;4.43;;;2.05;;
50429;SDS011;36359;41.556;-8.418;2022-09-02T11:20:44;2.58;;;1.45;;
50429;SDS011;36359;41.556;-8.418;2022-09-02T11:23:24;2.30;;;1.88;;
50429;SDS011;36359;41.556;-8.418;2022-09-02T11:34:51;2.90;;;1.52;;
50429;SDS011;36359;41.556;-8.418;2022-09-02T11:37:26;2.22;;;1.55;;
50429;SDS011;36359;41.556;-8.418;2022-09-02T11:39:57;3.65;;;1.70;;
50429;SDS011;36359;41.556;-8.418;2022-09-02T11:42:31;6.43;;;2.03;;
50429;SDS011;36359;41.556;-8.418;2022-09-02T11:45:46;4.13;;;1.85;;
50429;SDS011;36359;41.556;-8.418;2022-09-02T11:48:44;2.40;;;1.30;;
50429;SDS011;36359;41.556;-8.418;2022-09-02T11:54:22;3.90;;;1.60;;
50429;SDS011;36359;41.556;-8.418;2022-09-02T11:56:52;4.40;;;1.95;;
50429;SDS011;36359;41.556;-8.418;2022-09-02T12:00:00;3.13;;;1.65;;
50429;SDS011;36359;41.556;-8.418;2022-09-02T12:08:03;3.20;;;1.63;;
50429;SDS011;36359;41.556;-8.418;2022-09-02T12:21:18;2.05;;;1.60;;
50429;SDS011;36359;41.556;-8.418;2022-09-02T12:26:21;3.78;;;1.90;;
50429;SDS011;36359;41.556;-8.418;2022-09-02T12:31:50;3.45;;;1.90;;
50429;SDS011;36359;41.556;-8.418;2022-09-02T12:41:54;3.22;;;1.80;;
50429;SDS011;36359;41.556;-8.418;2022-09-02T12:44:49;4.43;;;1.70;;
50429;SDS011;36359;41.556;-8.418;2022-09-02T12:50:49;5.70;;;1.77;;
50429;SDS011;36359;41.556;-8.418;2022-09-02T12:55:55;4.43;;;1.10;;
50429;SDS011;36359;41.556;-8.418;2022-09-02T12:58:46;2.63;;;1.33;;
50429;SDS011;36359;41.556;-8.418;2022-09-02T13:20:21;2.70;;;1.20;;
50429;SDS011;36359;41.556;-8.418;2022-09-02T13:34:41;1.30;;;1.10;;
50429;SDS011;36359;41.556;-8.418;2022-09-02T13:37:31;1.30;;;0.60;;
50429;SDS011;36359;41.556;-8.418;2022-09-02T13:40:19;1.85;;;0.90;;
50429;SDS011;36359;41.556;-8.418;2022-09-02T13:42:49;2.13;;;0.90;;
50429;SDS011;36359;41.556;-8.418;2022-09-02T13:45:23;3.60;;;1.00;;
50429;SDS011;36359;41.556;-8.418;2022-09-02T13:47:51;3.72;;;1.17;;
50429;SDS011;36359;41.556;-8.418;2022-09-02T13:50:20;4.55;;;0.70;;
50429;SDS011;36359;41.556;-8.418;2022-09-02T13:52:53;2.97;;;1.17;;
50429;SDS011;36359;41.556;-8.418;2022-09-02T13:55:23;3.08;;;0.90;;
50429;SDS011;36359;41.556;-8.418;2022-09-02T14:00:31;5.40;;;1.23;;
50429;SDS011;36359;41.556;-8.418;2022-09-02T14:03:04;1.48;;;0.60;;
50429;SDS011;36359;41.556;-8.418;2022-09-02T14:05:31;3.00;;;1.38;;
50429;SDS011;36359;41.556;-8.418;2022-09-02T14:08:00;4.43;;;1.05;;
50429;SDS011;36359;41.556;-8.418;2022-09-02T14:10:28;3.58;;;1.25;;
50429;SDS011;36359;41.556;-8.418;2022-09-02T14:12:56;3.58;;;1.25;;
50429;SDS011;36359;41.556;-8.418;2022-09-02T14:15:25;4.00;;;0.98;;
50429;SDS011;36359;41.556;-8.418;2022-09-02T14:23:47;2.03;;;1.00;;
50429;SDS011;36359;41.556;-8.418;2022-09-02T14:26:30;3.40;;;1.08;;
50429;SDS011;36359;41.556;-8.418;2022-09-02T14:29:06;2.03;;;0.65;;
50429;SDS011;36359;41.556;-8.418;2022-09-02T14:31:36;4.63;;;0.95;;
50429;SDS011;36359;41.556;-8.418;2022-09-02T14:34:02;3.42;;;1.23;;
50429;SDS011;36359;41.556;-8.418;2022-09-02T14:36:31;4.07;;;1.05;;
50429;SDS011;36359;41.556;-8.418;2022-09-02T14:39:34;6.20;;;1.15;;
50429;SDS011;36359;41.556;-8.418;2022-09-02T14:41:54;4.85;;;1.23;;
50429;SDS011;36359;41.556;-8.418;2022-09-02T14:44:22;4.63;;;1.02;;
50429;SDS011;36359;41.556;-8.418;2022-09-02T14:46:57;3.95;;;0.90;;
50429;SDS011;36359;41.556;-8.418;2022-09-02T14:52:04;2.85;;;0.80;;
50429;SDS011;36359;41.556;-8.418;2022-09-02T14:54:43;2.42;;;1.02;;
50429;SDS011;36359;41.556;-8.418;2022-09-02T15:00:05;4.63;;;0.82;;
50429;SDS011;36359;41.556;-8.418;2022-09-02T15:02:34;4.70;;;1.05;;
50429;SDS011;36359;41.556;-8.418;2022-09-02T15:05:01;5.53;;;1.40;;
50429;SDS011;36359;41.556;-8.418;2022-09-02T15:07:30;1.92;;;0.98;;
50429;SDS011;36359;41.556;-8.418;2022-09-02T15:09:56;3.28;;;1.00;;
50429;SDS011;36359;41.556;-8.418;2022-09-02T15:12:24;3.20;;;0.98;;
50429;SDS011;36359;41.556;-8.418;2022-09-02T15:14:56;2.08;;;1.00;;
50429;SDS011;36359;41.556;-8.418;2022-09-02T15:17:22;3.75;;;0.73;;
50429;SDS011;36359;41.556;-8.418;2022-09-02T15:19:48;3.72;;;0.80;;
50429;SDS011;36359;41.556;-8.418;2022-09-02T15:22:15;1.67;;;0.90;;
50429;SDS011;36359;41.556;-8.418;2022-09-02T15:24:41;2.88;;;1.00;;
50429;SDS011;36359;41.556;-8.418;2022-09-02T15:27:08;4.30;;;1.10;;
50429;SDS011;36359;41.556;-8.418;2022-09-02T15:29:37;3.47;;;0.90;;
50429;SDS011;36359;41.556;-8.418;2022-09-02T15:32:03;4.63;;;0.80;;
50429;SDS011;36359;41.556;-8.418;2022-09-02T15:34:30;4.53;;;1.42;;
50429;SDS011;36359;41.556;-8.418;2022-09-02T15:36:57;2.85;;;0.80;;
50429;SDS011;36359;41.556;-8.418;2022-09-02T15:39:23;3.30;;;1.00;;
50429;SDS011;36359;41.556;-8.418;2022-09-02T15:41:50;2.67;;;1.05;;
50429;SDS011;36359;41.556;-8.418;2022-09-02T15:44:16;3.35;;;1.67;;
50429;SDS011;36359;41.556;-8.418;2022-09-02T15:46:43;2.78;;;1.30;;
50429;SDS011;36359;41.556;-8.418;2022-09-02T15:49:10;3.72;;;1.27;;
50429;SDS011;36359;41.556;-8.418;2022-09-02T15:51:38;2.92;;;1.23;;
50429;SDS011;36359;41.556;-8.418;2022-09-02T15:54:09;3.80;;;1.70;;
50429;SDS011;36359;41.556;-8.418;2022-09-02T15:56:37;3.03;;;1.45;;
50429;SDS011;36359;41.556;-8.418;2022-09-02T15:59:13;4.63;;;1.50;;
50429;SDS011;36359;41.556;-8.418;2022-09-02T16:01:43;3.03;;;1.33;;
50429;SDS011;36359;41.556;-8.418;2022-09-02T16:04:10;5.78;;;1.50;;
50429;SDS011;36359;41.556;-8.418;2022-09-02T16:06:38;3.45;;;1.80;;
50429;SDS011;36359;41.556;-8.418;2022-09-02T16:09:11;2.17;;;1.13;;
50429;SDS011;36359;41.556;-8.418;2022-09-02T16:11:39;3.30;;;1.55;;
50429;SDS011;36359;41.556;-8.418;2022-09-02T16:14:06;4.72;;;1.58;;
50429;SDS011;36359;41.556;-8.418;2022-09-02T16:16:32;6.38;;;1.60;;
50429;SDS011;36359;41.556;-8.418;2022-09-02T16:19:00;3.85;;;1.40;;
50429;SDS011;36359;41.556;-8.418;2022-09-02T16:21:27;3.72;;;1.58;;
50429;SDS011;36359;41.556;-8.418;2022-09-02T16:23:53;3.20;;;1.45;;
50429;SDS011;36359;41.556;-8.418;2022-09-02T16:26:29;4.53;;;1.63;;
50429;SDS011;36359;41.556;-8.418;2022-09-02T16:28:57;3.95;;;1.27;;
50429;SDS011;36359;41.556;-8.418;2022-09-02T16:31:28;3.95;;;1.40;;
50429;SDS011;36359;41.556;-8.418;2022-09-02T16:36:32;4.93;;;1.48;;
50429;SDS011;36359;41.556;-8.418;2022-09-02T16:38:59;4.88;;;1.25;;
50429;SDS011;36359;41.556;-8.418;2022-09-02T16:43:56;7.15;;;1.27;;
50429;SDS011;36359;41.556;-8.418;2022-09-02T16:46:23;6.80;;;1.52;;
50429;SDS011;36359;41.556;-8.418;2022-09-02T16:48:49;3.30;;;1.10;;
50429;SDS011;36359;41.556;-8.418;2022-09-02T16:51:16;3.28;;;1.13;;
50429;SDS011;36359;41.556;-8.418;2022-09-02T16:53:42;3.80;;;1.35;;
50429;SDS011;36359;41.556;-8.418;2022-09-02T16:56:12;3.03;;;1.48;;
50429;SDS011;36359;41.556;-8.418;2022-09-02T17:01:04;4.05;;;1.20;;
50429;SDS011;36359;41.556;-8.418;2022-09-02T17:03:32;3.97;;;1.30;;
50429;SDS011;36359;41.556;-8.418;2022-09-02T17:05:58;5.60;;;1.30;;
50429;SDS011;36359;41.556;-8.418;2022-09-02T17:08:24;3.88;;;1.48;;
50429;SDS011;36359;41.556;-8.418;2022-09-02T17:10:50;3.85;;;1.60;;
50429;SDS011;36359;41.556;-8.418;2022-09-02T17:13:16;5.00;;;1.58;;
50429;SDS011;36359;41.556;-8.418;2022-09-02T17:15:42;2.78;;;1.60;;
50429;SDS011;36359;41.556;-8.418;2022-09-02T17:18:07;4.13;;;1.30;;
50429;SDS011;36359;41.556;-8.418;2022-09-02T17:20:33;5.32;;;1.65;;
50429;SDS011;36359;41.556;-8.418;2022-09-02T17:22:59;3.65;;;1.60;;
50429;SDS011;36359;41.556;-8.418;2022-09-02T17:25:25;4.25;;;1.65;;
50429;SDS011;36359;41.556;-8.418;2022-09-02T17:27:51;4.32;;;1.25;;
50429;SDS011;36359;41.556;-8.418;2022-09-02T17:30:17;3.97;;;1.48;;
50429;SDS011;36359;41.556;-8.418;2022-09-02T17:32:42;4.57;;;1.40;;
50429;SDS011;36359;41.556;-8.418;2022-09-02T17:35:09;3.38;;;1.23;;
50429;SDS011;36359;41.556;-8.418;2022-09-02T17:37:35;4.13;;;1.60;;
50429;SDS011;36359;41.556;-8.418;2022-09-02T17:40:05;3.85;;;1.63;;